createdAt,value
2019-05-02T00:00:51.716Z,62.50
2019-05-02T00:02:51.637Z,68.50
2019-05-02T00:04:55.976Z,62.20
2019-05-02T00:05:51.952Z,70.40
2019-05-02T00:06:50.489Z,68.60
2019-05-02T00:08:51.608Z,68.40
2019-05-02T00:10:51.567Z,67.30
2019-05-02T00:12:51.536Z,73.50
2019-05-02T00:13:52.280Z,64.90
2019-05-02T00:14:50.380Z,66.50
2019-05-02T00:15:52.334Z,63.80
2019-05-02T00:16:50.507Z,61.20
2019-05-02T00:19:51.447Z,73.90
2019-05-02T00:20:52.430Z,68.80
2019-05-02T00:21:50.331Z,75.10
2019-05-02T00:22:53.483Z,77.70
2019-05-02T00:23:50.288Z,79.40
2019-05-02T00:24:52.563Z,73.60
2019-05-02T00:25:52.606Z,72.10
2019-05-02T00:26:56.066Z,71.10
2019-05-02T00:27:51.215Z,73.50
2019-05-02T00:28:52.807Z,70.10
2019-05-02T00:29:53.920Z,70.90
2019-05-02T00:30:51.229Z,75.80
2019-05-02T00:31:53.052Z,68.30
2019-05-02T00:32:53.229Z,67.20
2019-05-02T00:33:53.146Z,65.10
2019-05-02T00:34:50.140Z,66.00
2019-05-02T00:36:51.405Z,68.00
2019-05-02T00:38:51.231Z,68.90
2019-05-02T00:40:51.226Z,67.70
2019-05-02T00:41:53.527Z,70.90
2019-05-02T00:42:53.366Z,66.60
2019-05-02T00:43:54.537Z,69.80
2019-05-02T00:44:50.037Z,69.90
2019-05-02T00:46:51.246Z,76.30
2019-05-02T00:48:54.037Z,66.70
2019-05-02T00:49:51.000Z,71.70
2019-05-02T00:51:51.099Z,72.00
2019-05-02T00:52:53.925Z,72.80
2019-05-02T00:53:49.936Z,70.50
2019-05-02T00:55:49.944Z,65.60
2019-05-02T00:56:54.042Z,67.70
2019-05-02T00:57:50.832Z,69.40
2019-05-02T00:58:55.896Z,65.80
2019-05-02T00:59:49.879Z,66.20
2019-05-02T01:00:53.171Z,69.10
2019-05-02T01:01:49.888Z,76.80
2019-05-02T01:02:50.915Z,74.90
2019-05-02T01:03:52.084Z,76.60
2019-05-02T01:04:49.873Z,72.10
2019-05-02T01:05:49.821Z,74.70
2019-05-02T01:06:50.811Z,68.20
2019-05-02T01:07:49.824Z,61.50
2019-05-02T01:08:49.896Z,69.30
2019-05-02T01:09:49.762Z,64.70
2019-05-02T01:10:52.128Z,67.20
2019-05-02T01:11:50.748Z,67.40
2019-05-02T01:12:49.856Z,68.50
2019-05-02T01:13:50.229Z,68.80
2019-05-02T01:15:49.721Z,68.30
2019-05-02T01:16:54.442Z,72.00
2019-05-02T01:17:50.714Z,65.00
2019-05-02T01:18:49.797Z,68.30
2019-05-02T01:19:51.448Z,71.90
2019-05-02T01:20:49.805Z,69.70
2019-05-02T01:21:49.639Z,69.90
2019-05-02T01:22:52.240Z,65.70
2019-05-02T01:23:49.621Z,69.70
2019-05-02T01:24:49.753Z,62.20
2019-05-02T01:25:52.762Z,67.60
2019-05-02T01:26:49.615Z,75.30
2019-05-02T01:27:49.651Z,71.20
2019-05-02T01:28:54.334Z,77.40
2019-05-02T01:29:50.556Z,70.30
2019-05-02T01:30:49.652Z,66.20
2019-05-02T01:31:49.924Z,63.60
2019-05-02T01:32:49.573Z,60.00
2019-05-02T01:33:49.587Z,67.80
2019-05-02T01:34:54.310Z,64.30
2019-05-02T01:35:50.484Z,62.30
2019-05-02T01:36:49.586Z,65.50
2019-05-02T01:37:51.057Z,70.10
2019-05-02T01:38:50.547Z,68.00
2019-05-02T01:39:49.448Z,62.60
2019-05-02T01:40:53.226Z,66.30
2019-05-02T01:41:50.424Z,67.90
2019-05-02T01:42:51.055Z,71.50
2019-05-02T01:43:49.433Z,62.20
2019-05-02T01:44:49.465Z,64.10
2019-05-02T01:45:49.380Z,67.00
2019-05-02T01:46:49.493Z,66.40
2019-05-02T01:47:49.362Z,69.80
2019-05-02T01:48:49.492Z,75.10
2019-05-02T01:49:51.999Z,75.10
2019-05-02T01:50:50.432Z,78.10
2019-05-02T01:51:49.418Z,77.70
2019-05-02T01:52:49.404Z,70.30
2019-05-02T01:53:49.434Z,72.20
2019-05-02T01:54:49.414Z,78.40
2019-05-02T01:55:51.945Z,87.60
2019-05-02T01:56:50.354Z,85.00
2019-05-02T01:57:49.250Z,87.00
2019-05-02T01:58:52.979Z,88.40
2019-05-02T01:59:50.281Z,94.90
2019-05-02T02:00:49.359Z,87.20
2019-05-02T02:01:53.225Z,88.90
2019-05-02T02:02:50.264Z,87.70
2019-05-02T02:03:49.251Z,90.50
2019-05-02T02:04:52.107Z,90.40
2019-05-02T02:05:50.220Z,92.30
2019-05-02T02:06:49.166Z,79.50
2019-05-02T02:07:50.883Z,84.40
2019-05-02T02:08:50.196Z,85.90
2019-05-02T02:09:50.289Z,91.40
2019-05-02T02:10:50.705Z,84.60
2019-05-02T02:11:50.128Z,85.20
2019-05-02T02:13:02.748Z,84.80
2019-05-02T02:13:50.077Z,88.60
2019-05-02T02:14:53.368Z,82.40
2019-05-02T02:15:50.084Z,84.70
2019-05-02T02:16:49.168Z,81.50
2019-05-02T02:17:51.495Z,78.00
2019-05-02T02:18:49.071Z,74.70
2019-05-02T02:19:49.051Z,79.60
2019-05-02T02:20:50.207Z,85.60
2019-05-02T02:21:49.001Z,83.80
2019-05-02T02:22:49.089Z,75.30
2019-05-02T02:23:49.756Z,76.40
2019-05-02T02:24:49.024Z,80.60
2019-05-02T02:25:48.947Z,78.80
2019-05-02T02:26:49.930Z,82.20
2019-05-02T02:27:48.928Z,77.80
2019-05-02T02:28:49.040Z,82.70
2019-05-02T02:29:48.975Z,83.50
2019-05-02T02:30:48.962Z,79.10
2019-05-02T02:31:48.938Z,80.00
2019-05-02T02:32:48.957Z,89.60
2019-05-02T02:33:49.917Z,84.30
2019-05-02T02:34:49.111Z,81.60
2019-05-02T02:35:50.487Z,79.50
2019-05-02T02:36:48.887Z,83.50
2019-05-02T02:37:55.459Z,81.70
2019-05-02T02:38:49.913Z,85.50
2019-05-02T02:39:53.971Z,80.00
2019-05-02T02:40:49.853Z,81.60
2019-05-02T02:41:52.395Z,79.50
2019-05-02T02:42:49.863Z,74.80
2019-05-02T02:43:48.760Z,75.70
2019-05-02T02:44:48.831Z,83.60
2019-05-02T02:45:51.890Z,80.40
2019-05-02T02:46:49.792Z,82.60
2019-05-02T02:47:52.967Z,84.50
2019-05-02T02:48:49.713Z,86.40
2019-05-02T02:49:48.761Z,88.10
2019-05-02T02:50:48.712Z,81.60
2019-05-02T02:51:48.802Z,82.60
2019-05-02T02:52:48.671Z,84.30
2019-05-02T02:53:48.685Z,82.40
2019-05-02T02:54:48.655Z,79.30
2019-05-02T02:55:48.699Z,82.30
2019-05-02T02:56:48.676Z,86.10
2019-05-02T02:57:48.731Z,76.30
2019-05-02T02:58:48.621Z,80.50
2019-05-02T02:59:48.664Z,85.50
2019-05-02T03:00:49.387Z,81.90
2019-05-02T03:01:48.664Z,82.70
2019-05-02T03:02:50.084Z,85.30
2019-05-02T03:03:48.674Z,76.40
2019-05-02T03:04:48.550Z,70.60
2019-05-02T03:05:48.587Z,73.30
2019-05-02T03:06:48.565Z,69.50
2019-05-02T03:07:48.572Z,75.10
2019-05-02T03:08:49.248Z,74.20
2019-05-02T03:09:48.751Z,74.00
2019-05-02T03:10:48.499Z,70.40
2019-05-02T03:11:48.632Z,70.00
2019-05-02T03:12:48.440Z,73.50
2019-05-02T03:13:52.386Z,73.40
2019-05-02T03:14:49.589Z,74.50
2019-05-02T03:15:48.532Z,76.20
2019-05-02T03:16:49.521Z,77.30
2019-05-02T03:17:48.447Z,80.70
2019-05-02T03:18:48.393Z,78.10
2019-05-02T03:20:49.494Z,83.80
2019-05-02T03:21:54.239Z,90.10
2019-05-02T03:22:49.339Z,84.10
2019-05-02T03:23:48.404Z,83.70
2019-05-02T03:24:48.319Z,84.20
2019-05-02T03:25:51.256Z,83.50
2019-05-02T03:26:48.641Z,83.60
2019-05-02T03:27:49.372Z,83.10
2019-05-02T03:28:57.692Z,83.00
2019-05-02T03:29:49.266Z,84.60
2019-05-02T03:30:48.328Z,83.40
2019-05-02T03:31:48.276Z,88.50
2019-05-02T03:33:02.806Z,90.50
2019-05-02T03:33:56.529Z,91.40
2019-05-02T03:34:53.409Z,83.90
2019-05-02T03:35:49.379Z,88.50
2019-05-02T03:36:48.195Z,85.70
2019-05-02T03:37:51.348Z,85.00
2019-05-02T03:38:48.177Z,86.00
2019-05-02T03:39:56.960Z,87.90
2019-05-02T03:40:49.144Z,89.60
2019-05-02T03:41:48.198Z,92.70
2019-05-02T03:42:48.178Z,85.20
2019-05-02T03:43:48.237Z,91.80
2019-05-02T03:44:55.121Z,86.70
2019-05-02T03:45:49.170Z,83.50
2019-05-02T03:46:54.437Z,88.20
2019-05-02T03:47:49.114Z,89.40
2019-05-02T03:48:48.147Z,86.20
2019-05-02T03:49:49.426Z,89.10
2019-05-02T03:50:48.154Z,87.40
2019-05-02T03:51:48.076Z,91.40
2019-05-02T03:52:48.104Z,87.70
2019-05-02T03:53:48.016Z,92.30
2019-05-02T03:54:50.181Z,85.50
2019-05-02T03:55:48.028Z,85.20
2019-05-02T03:56:51.166Z,85.70
2019-05-02T03:57:48.018Z,89.70
2019-05-02T03:58:55.442Z,86.30
2019-05-02T03:59:48.942Z,89.20
2019-05-02T04:00:48.057Z,91.90
2019-05-02T04:01:47.925Z,88.70
2019-05-02T04:02:59.131Z,95.00
2019-05-02T04:03:48.907Z,84.40
2019-05-02T04:04:54.497Z,88.60
2019-05-02T04:05:48.885Z,87.60
2019-05-02T04:06:47.998Z,93.10
2019-05-02T04:07:47.911Z,87.90
2019-05-02T04:08:58.684Z,88.90
2019-05-02T04:09:48.851Z,91.60
2019-05-02T04:10:52.727Z,94.40
2019-05-02T04:11:48.821Z,87.80
2019-05-02T04:12:53.227Z,84.50
2019-05-02T04:13:48.841Z,93.40
2019-05-02T04:14:47.835Z,86.50
2019-05-02T04:15:47.786Z,85.00
2019-05-02T04:16:48.697Z,89.60
2019-05-02T04:17:48.757Z,82.80
2019-05-02T04:18:55.702Z,86.30
2019-05-02T04:19:48.777Z,86.40
2019-05-02T04:20:49.741Z,78.30
2019-05-02T04:21:52.542Z,87.00
2019-05-02T04:22:50.678Z,87.50
2019-05-02T04:23:47.715Z,84.20
2019-05-02T04:24:54.642Z,86.60
2019-05-02T04:25:48.664Z,81.90
2019-05-02T04:26:53.618Z,77.90
2019-05-02T04:27:48.671Z,81.80
2019-05-02T04:28:51.754Z,79.60
2019-05-02T04:29:47.665Z,74.60
2019-05-02T04:30:51.083Z,80.10
2019-05-02T04:31:48.602Z,79.00
2019-05-02T04:32:49.623Z,80.10
2019-05-02T04:33:48.638Z,76.10
2019-05-02T04:34:54.554Z,82.70
2019-05-02T04:35:48.555Z,84.00
2019-05-02T04:36:59.864Z,86.30
2019-05-02T04:37:48.551Z,86.20
2019-05-02T04:38:51.705Z,83.80
2019-05-02T04:39:49.116Z,89.30
2019-05-02T04:40:49.562Z,88.70
2019-05-02T04:41:48.637Z,89.80
2019-05-02T04:42:53.341Z,89.90
2019-05-02T04:43:57.420Z,83.80
2019-05-02T04:45:11.855Z,89.30
2019-05-02T04:45:56.197Z,84.90
2019-05-02T04:46:49.013Z,85.10
2019-05-02T04:47:57.529Z,92.40
2019-05-02T04:48:52.089Z,87.10
2019-05-02T04:49:51.554Z,85.70
2019-05-02T04:50:48.833Z,93.70
2019-05-02T04:51:57.365Z,91.80
2019-05-02T04:52:53.893Z,93.50
2019-05-02T04:53:49.875Z,91.70
2019-05-02T04:54:48.777Z,90.10
2019-05-02T04:55:52.063Z,94.70
2019-05-02T04:56:53.451Z,88.50
2019-05-02T04:57:51.010Z,90.00
2019-05-02T04:58:49.547Z,88.90
2019-05-02T04:59:50.132Z,91.30
2019-05-02T05:00:54.080Z,87.30
2019-05-02T05:01:56.633Z,84.10
2019-05-02T05:02:50.993Z,87.70
2019-05-02T05:03:51.309Z,87.80
2019-05-02T05:04:49.469Z,82.20
2019-05-02T05:05:48.225Z,89.60
2019-05-02T05:06:56.082Z,87.40
2019-05-02T05:07:49.506Z,90.10
2019-05-02T05:08:48.250Z,85.20
2019-05-02T05:09:57.157Z,86.40
2019-05-02T05:10:48.216Z,81.40
2019-05-02T05:11:48.194Z,85.50
2019-05-02T05:12:48.021Z,90.50
2019-05-02T05:13:47.901Z,89.20
2019-05-02T05:14:47.457Z,81.60
2019-05-02T05:15:51.288Z,89.80
2019-05-02T05:16:51.754Z,85.90
2019-05-02T05:17:50.049Z,86.00
2019-05-02T05:18:49.357Z,89.10
2019-05-02T05:19:48.735Z,86.50
2019-05-02T05:20:53.054Z,88.40
2019-05-02T05:21:48.064Z,92.10
2019-05-02T05:22:47.924Z,96.00
2019-05-02T05:23:47.210Z,93.30
2019-05-02T05:24:47.707Z,89.40
2019-05-02T05:25:47.931Z,91.70
2019-05-02T05:26:47.647Z,93.30
2019-05-02T05:27:47.914Z,92.30
2019-05-02T05:28:47.657Z,90.40
2019-05-02T05:29:48.619Z,95.30
2019-05-02T05:30:49.670Z,94.90
2019-05-02T05:31:48.333Z,91.90
2019-05-02T05:32:47.878Z,94.90
2019-05-02T05:33:47.875Z,91.80
2019-05-02T05:34:47.836Z,89.40
2019-05-02T05:35:48.821Z,84.70
2019-05-02T05:36:48.258Z,86.30
2019-05-02T05:37:49.019Z,89.10
2019-05-02T05:38:47.968Z,86.80
2019-05-02T05:39:48.711Z,88.30
2019-05-02T05:40:50.129Z,88.50
2019-05-02T05:41:50.498Z,93.20
2019-05-02T05:42:48.183Z,84.50
2019-05-02T05:43:49.994Z,84.70
2019-05-02T05:44:48.406Z,86.90
2019-05-02T05:45:53.526Z,81.90
2019-05-02T05:46:49.529Z,88.10
2019-05-02T05:47:47.891Z,83.60
2019-05-02T05:48:47.618Z,79.90
2019-05-02T05:49:47.722Z,88.00
2019-05-02T05:50:47.799Z,81.70
2019-05-02T05:51:47.724Z,82.30
2019-05-02T05:52:47.255Z,79.50
2019-05-02T05:53:47.880Z,83.30
2019-05-02T05:54:47.400Z,87.10
2019-05-02T05:55:47.337Z,86.20
2019-05-02T05:56:48.128Z,79.50
2019-05-02T05:57:49.745Z,77.80
2019-05-02T05:58:48.131Z,74.90
2019-05-02T05:59:48.468Z,71.60
2019-05-02T06:00:53.829Z,79.20
2019-05-02T06:01:48.398Z,76.10
2019-05-02T06:02:53.847Z,74.60
2019-05-02T06:03:47.631Z,75.60
2019-05-02T06:04:47.390Z,74.60
2019-05-02T06:05:47.722Z,75.50
2019-05-02T06:06:47.976Z,77.50
2019-05-02T06:07:47.415Z,70.00
2019-05-02T06:08:49.235Z,73.50
2019-05-02T06:09:47.528Z,75.70
2019-05-02T06:10:46.576Z,73.90
2019-05-02T06:11:50.788Z,69.00
2019-05-02T06:12:46.604Z,69.90
2019-05-02T06:13:48.823Z,69.90
2019-05-02T06:14:46.688Z,70.70
2019-05-02T06:15:46.456Z,73.50
2019-05-02T06:16:51.292Z,74.70
2019-05-02T06:17:47.469Z,76.50
2019-05-02T06:18:46.561Z,75.70
2019-05-02T06:19:48.277Z,78.80
2019-05-02T06:20:47.480Z,76.10
2019-05-02T06:21:46.789Z,76.50
2019-05-02T06:22:46.460Z,81.10
2019-05-02T06:23:46.373Z,76.20
2019-05-02T06:24:50.950Z,81.10
2019-05-02T06:25:47.366Z,78.30
2019-05-02T06:26:49.732Z,76.10
2019-05-02T06:27:47.338Z,75.80
2019-05-02T06:28:46.408Z,77.40
2019-05-02T06:29:46.324Z,71.90
2019-05-02T06:30:46.416Z,78.60
2019-05-02T06:31:46.296Z,77.50
2019-05-02T06:32:50.136Z,76.10
2019-05-02T06:33:47.279Z,79.60
2019-05-02T06:34:47.603Z,78.50
2019-05-02T06:35:46.258Z,83.00
2019-05-02T06:36:46.351Z,81.40
2019-05-02T06:37:49.965Z,79.40
2019-05-02T06:38:47.289Z,77.20
2019-05-02T06:39:46.254Z,79.60
2019-05-02T06:40:46.626Z,79.20
2019-05-02T06:41:46.181Z,84.80
2019-05-02T06:42:46.321Z,81.50
2019-05-02T06:43:48.181Z,82.50
2019-05-02T06:44:46.251Z,81.60
2019-05-02T06:45:46.143Z,83.10
2019-05-02T06:46:46.233Z,87.60
2019-05-02T06:47:46.150Z,82.50
2019-05-02T06:48:48.262Z,83.00
2019-05-02T06:49:47.082Z,81.30
2019-05-02T06:50:46.137Z,82.70
2019-05-02T06:51:46.073Z,81.70
2019-05-02T06:52:46.196Z,83.40
2019-05-02T06:53:46.944Z,90.40
2019-05-02T06:54:46.083Z,86.30
2019-05-02T06:55:46.025Z,83.90
2019-05-02T06:56:47.903Z,86.30
2019-05-02T06:57:46.033Z,86.10
2019-05-02T06:58:46.139Z,91.20
2019-05-02T06:59:50.063Z,89.70
2019-05-02T07:00:58.050Z,89.60
2019-05-02T07:01:46.948Z,88.70
2019-05-02T07:02:46.022Z,84.70
2019-05-02T07:03:47.450Z,86.90
2019-05-02T07:04:46.047Z,87.00
2019-05-02T07:05:48.873Z,90.30
2019-05-02T07:06:58.269Z,80.80
2019-05-02T07:07:46.997Z,78.50
2019-05-02T07:08:46.124Z,84.30
2019-05-02T07:09:45.879Z,82.00
2019-05-02T07:10:45.987Z,77.70
2019-05-02T07:11:56.626Z,80.70
2019-05-02T07:12:51.276Z,77.80
2019-05-02T07:13:46.852Z,78.00
2019-05-02T07:14:45.948Z,74.80
2019-05-02T07:15:48.350Z,80.20
2019-05-02T07:16:49.715Z,78.30
2019-05-02T07:17:46.779Z,79.30
2019-05-02T07:18:47.637Z,79.80
2019-05-02T07:19:45.766Z,79.00
2019-05-02T07:20:45.845Z,78.80
2019-05-02T07:21:45.762Z,83.40
2019-05-02T07:22:45.890Z,81.20
2019-05-02T07:23:48.694Z,84.70
2019-05-02T07:24:46.805Z,85.60
2019-05-02T07:25:45.693Z,80.00
2019-05-02T07:26:45.774Z,82.20
2019-05-02T07:27:45.671Z,80.10
2019-05-02T07:28:47.471Z,84.20
2019-05-02T07:29:45.667Z,82.30
2019-05-02T07:30:45.717Z,85.20
2019-05-02T07:31:47.676Z,84.30
2019-05-02T07:32:45.718Z,81.20
2019-05-02T07:33:45.613Z,77.30
2019-05-02T07:34:48.167Z,77.80
2019-05-02T07:35:45.615Z,76.10
2019-05-02T07:36:45.647Z,79.40
2019-05-02T07:37:48.729Z,80.00
2019-05-02T07:38:45.664Z,79.60
2019-05-02T07:39:45.623Z,77.20
2019-05-02T07:40:48.167Z,81.70
2019-05-02T07:41:45.564Z,79.90
2019-05-02T07:42:45.605Z,77.40
2019-05-02T07:43:45.594Z,75.90
2019-05-02T07:44:45.633Z,71.30
2019-05-02T07:45:46.539Z,72.30
2019-05-02T07:46:51.961Z,80.50
2019-05-02T07:47:46.454Z,66.30
2019-05-02T07:48:48.696Z,68.70
2019-05-02T07:49:46.463Z,69.90
2019-05-02T07:50:46.423Z,73.10
2019-05-02T07:51:45.443Z,77.40
2019-05-02T07:52:45.478Z,74.90
2019-05-02T07:53:48.589Z,63.20
2019-05-02T07:54:45.575Z,66.10
2019-05-02T07:55:45.374Z,62.20
2019-05-02T07:56:48.713Z,62.00
2019-05-02T07:57:45.361Z,59.90
2019-05-02T07:58:47.990Z,58.30
2019-05-02T07:59:45.359Z,69.50
2019-05-02T08:00:45.399Z,69.00
2019-05-02T08:01:49.665Z,65.60
2019-05-02T08:02:46.339Z,77.60
2019-05-02T08:03:45.279Z,80.20
2019-05-02T08:04:45.354Z,88.10
2019-05-02T08:05:45.299Z,84.50
2019-05-02T08:06:46.468Z,82.60
2019-05-02T08:07:45.237Z,77.90
2019-05-02T08:08:45.356Z,76.90
2019-05-02T08:09:45.380Z,73.50
2019-05-02T08:10:45.416Z,73.90
2019-05-02T08:11:45.198Z,74.10
2019-05-02T08:12:45.277Z,75.60
2019-05-02T08:13:49.580Z,73.60
2019-05-02T08:14:46.202Z,72.60
2019-05-02T08:15:50.271Z,72.70
2019-05-02T08:16:46.212Z,76.40
2019-05-02T08:17:53.162Z,70.20
2019-05-02T08:18:46.128Z,66.30
2019-05-02T08:19:45.221Z,76.40
2019-05-02T08:20:45.120Z,72.10
2019-05-02T08:21:45.143Z,72.70
2019-05-02T08:22:48.954Z,67.60
2019-05-02T08:23:46.187Z,69.40
2019-05-02T08:24:45.067Z,69.60
2019-05-02T08:25:45.396Z,64.90
2019-05-02T08:26:45.062Z,67.20
2019-05-02T08:27:45.113Z,73.70
2019-05-02T08:28:47.061Z,65.70
2019-05-02T08:29:46.125Z,64.50
2019-05-02T08:30:45.210Z,67.60
2019-05-02T08:31:45.145Z,70.80
2019-05-02T08:32:44.969Z,68.70
2019-05-02T08:33:45.013Z,70.40
2019-05-02T08:34:46.136Z,72.50
2019-05-02T08:35:45.988Z,74.40
2019-05-02T08:36:44.915Z,69.90
2019-05-02T08:37:44.948Z,73.90
2019-05-02T08:38:48.896Z,77.70
2019-05-02T08:39:45.888Z,85.80
2019-05-02T08:40:47.813Z,76.50
2019-05-02T08:41:44.896Z,75.90
2019-05-02T08:42:45.031Z,81.50
2019-05-02T08:43:46.035Z,77.70
2019-05-02T08:44:51.146Z,77.00
2019-05-02T08:45:45.821Z,74.90
2019-05-02T08:46:46.126Z,71.20
2019-05-02T08:47:45.798Z,72.30
2019-05-02T08:48:44.826Z,68.60
2019-05-02T08:49:48.988Z,71.80
2019-05-02T08:50:44.853Z,77.90
2019-05-02T08:51:44.785Z,69.70
2019-05-02T08:52:47.809Z,75.90
2019-05-02T08:53:44.739Z,70.60
2019-05-02T08:54:45.074Z,65.00
2019-05-02T08:55:45.230Z,69.90
2019-05-02T08:56:44.909Z,66.80
2019-05-02T08:57:44.694Z,72.70
2019-05-02T08:58:45.043Z,69.90
2019-05-02T08:59:44.670Z,75.60
2019-05-02T09:00:47.163Z,65.50
2019-05-02T09:01:44.869Z,72.70
2019-05-02T09:02:44.711Z,78.80
2019-05-02T09:04:00.008Z,76.10
2019-05-02T09:04:57.343Z,67.30
2019-05-02T09:05:46.235Z,73.10
2019-05-02T09:06:46.070Z,78.10
2019-05-02T09:07:44.580Z,73.00
2019-05-02T09:08:46.116Z,68.00
2019-05-02T09:09:45.551Z,61.60
2019-05-02T09:10:44.699Z,58.50
2019-05-02T09:11:56.301Z,57.80
2019-05-02T09:12:45.643Z,58.00
2019-05-02T09:13:46.084Z,56.70
2019-05-02T09:14:44.501Z,54.70
2019-05-02T09:15:49.745Z,57.50
2019-05-02T09:16:45.524Z,58.90
2019-05-02T09:17:54.803Z,59.60
2019-05-02T09:18:50.909Z,59.50
2019-05-02T09:19:59.160Z,55.90
2019-05-02T09:20:51.479Z,62.20
2019-05-02T09:21:45.452Z,55.00
2019-05-02T09:22:46.661Z,54.40
2019-05-02T09:23:45.467Z,55.00
2019-05-02T09:24:44.957Z,62.00
2019-05-02T09:25:44.487Z,66.80
2019-05-02T09:26:44.441Z,70.00
2019-05-02T09:27:44.496Z,57.10
2019-05-02T09:28:44.356Z,56.70
2019-05-02T09:29:45.908Z,52.40
2019-05-02T09:30:46.788Z,51.00
2019-05-02T09:31:46.134Z,50.70
2019-05-02T09:32:44.323Z,50.70
2019-05-02T09:33:46.786Z,49.10
2019-05-02T09:34:44.285Z,49.60
2019-05-02T09:35:44.323Z,49.60
2019-05-02T09:36:44.257Z,56.00
2019-05-02T09:37:44.369Z,49.70
2019-05-02T09:38:44.244Z,50.00
2019-05-02T09:39:44.348Z,58.10
2019-05-02T09:40:47.213Z,54.90
2019-05-02T09:41:45.331Z,56.10
2019-05-02T09:42:47.614Z,51.80
2019-05-02T09:43:45.180Z,49.40
2019-05-02T09:44:47.970Z,44.40
2019-05-02T09:45:45.158Z,46.50
2019-05-02T09:46:47.487Z,49.90
2019-05-02T09:47:55.819Z,45.10
2019-05-02T09:48:45.133Z,42.50
2019-05-02T09:49:49.159Z,49.00
2019-05-02T09:50:45.105Z,46.20
2019-05-02T09:51:45.662Z,47.60
2019-05-02T09:52:45.141Z,49.10
2019-05-02T09:53:44.138Z,45.30
2019-05-02T09:54:46.079Z,44.40
2019-05-02T09:55:49.728Z,53.50
2019-05-02T09:56:45.042Z,45.70
2019-05-02T09:57:44.069Z,43.50
2019-05-02T09:58:44.044Z,48.10
2019-05-02T09:59:50.337Z,44.80
2019-05-02T10:00:44.996Z,45.40
2019-05-02T10:01:44.098Z,44.30
2019-05-02T10:02:43.972Z,46.80
2019-05-02T10:03:44.055Z,48.20
2019-05-02T10:04:44.187Z,44.20
2019-05-02T10:05:44.028Z,48.50
2019-05-02T10:06:43.940Z,45.50
2019-05-02T10:07:44.034Z,50.50
2019-05-02T10:08:46.582Z,48.50
2019-05-02T10:09:43.956Z,47.70
2019-05-02T10:10:45.816Z,47.40
2019-05-02T10:11:43.959Z,47.80
2019-05-02T10:12:43.862Z,49.10
2019-05-02T10:13:44.014Z,46.70
2019-05-02T10:14:43.843Z,50.50
2019-05-02T10:15:43.911Z,55.90
2019-05-02T10:16:43.821Z,59.10
2019-05-02T10:17:46.742Z,58.40
2019-05-02T10:18:43.835Z,55.10
2019-05-02T10:19:48.946Z,48.90
2019-05-02T10:20:44.781Z,44.20
2019-05-02T10:21:47.127Z,48.00
2019-05-02T10:22:44.743Z,43.80
2019-05-02T10:23:43.873Z,47.90
2019-05-02T10:24:43.725Z,48.60
2019-05-02T10:25:46.776Z,47.50
2019-05-02T10:26:43.723Z,45.50
2019-05-02T10:27:47.447Z,45.90
2019-05-02T10:28:49.385Z,43.90
2019-05-02T10:29:44.800Z,56.60
2019-05-02T10:30:47.287Z,45.40
2019-05-02T10:31:44.726Z,47.00
2019-05-02T10:32:47.246Z,44.20
2019-05-02T10:33:44.759Z,44.30
2019-05-02T10:34:47.599Z,43.30
2019-05-02T10:35:44.692Z,42.10
2019-05-02T10:36:45.469Z,42.60
2019-05-02T10:37:43.593Z,41.10
2019-05-02T10:38:43.684Z,37.20
2019-05-02T10:39:43.662Z,38.50
2019-05-02T10:40:43.642Z,41.10
2019-05-02T10:41:43.812Z,43.10
2019-05-02T10:42:43.566Z,41.10
2019-05-02T10:43:46.958Z,45.40
2019-05-02T10:44:44.634Z,40.70
2019-05-02T10:45:47.343Z,38.20
2019-05-02T10:46:44.519Z,40.30
2019-05-02T10:47:43.597Z,40.70
2019-05-02T10:48:43.470Z,38.30
2019-05-02T10:49:43.533Z,42.60
2019-05-02T10:50:43.446Z,43.30
2019-05-02T10:51:49.170Z,43.80
2019-05-02T10:52:44.426Z,41.00
2019-05-02T10:53:47.219Z,42.80
2019-05-02T10:54:44.463Z,42.00
2019-05-02T10:55:43.473Z,41.30
2019-05-02T10:56:43.382Z,41.70
2019-05-02T10:57:43.463Z,40.80
2019-05-02T10:58:43.364Z,41.90
2019-05-02T10:59:43.403Z,43.80
2019-05-02T11:00:45.409Z,40.20
2019-05-02T11:01:43.392Z,41.60
2019-05-02T11:02:43.341Z,38.80
2019-05-02T11:03:47.361Z,39.40
2019-05-02T11:04:43.324Z,40.30
2019-05-02T11:05:43.333Z,37.60
2019-05-02T11:06:46.351Z,36.30
2019-05-02T11:07:43.344Z,36.90
2019-05-02T11:08:45.963Z,36.10
2019-05-02T11:09:43.381Z,34.40
2019-05-02T11:10:43.226Z,34.80
2019-05-02T11:11:43.284Z,35.00
2019-05-02T11:12:46.812Z,35.10
2019-05-02T11:13:43.265Z,33.50
2019-05-02T11:14:43.216Z,34.50
2019-05-02T11:15:43.336Z,39.90
2019-05-02T11:16:43.170Z,35.80
2019-05-02T11:17:43.189Z,37.30
2019-05-02T11:18:45.207Z,36.80
2019-05-02T11:19:43.204Z,35.20
2019-05-02T11:20:43.160Z,35.50
2019-05-02T11:21:55.544Z,33.30
2019-05-02T11:22:44.112Z,36.00
2019-05-02T11:23:43.154Z,35.40
2019-05-02T11:24:43.069Z,31.50
2019-05-02T11:25:43.168Z,33.20
2019-05-02T11:26:43.056Z,34.70
2019-05-02T11:27:43.157Z,32.70
2019-05-02T11:28:43.029Z,34.10
2019-05-02T11:29:43.065Z,33.50
2019-05-02T11:30:43.031Z,28.70
2019-05-02T11:31:43.082Z,30.80
2019-05-02T11:32:43.095Z,30.80
2019-05-02T11:33:43.105Z,30.10
2019-05-02T11:34:42.968Z,31.00
2019-05-02T11:35:49.094Z,31.20
2019-05-02T11:36:43.962Z,32.70
2019-05-02T11:37:43.020Z,33.20
2019-05-02T11:38:45.380Z,34.50
2019-05-02T11:39:49.962Z,33.70
2019-05-02T11:40:43.930Z,35.80
2019-05-02T11:41:42.956Z,33.40
2019-05-02T11:42:42.875Z,35.40
2019-05-02T11:43:44.974Z,33.50
2019-05-02T11:44:42.881Z,35.70
2019-05-02T11:45:42.877Z,30.30
2019-05-02T11:46:46.776Z,31.40
2019-05-02T11:48:55.535Z,32.50
2019-05-02T11:49:46.769Z,31.60
2019-05-02T11:50:43.857Z,32.80
2019-05-02T11:51:47.057Z,35.10
2019-05-02T11:52:43.766Z,30.10
2019-05-02T11:53:42.838Z,32.60
2019-05-02T11:54:45.998Z,32.60
2019-05-02T11:55:43.925Z,38.10
2019-05-02T11:56:48.999Z,39.70
2019-05-02T11:57:43.772Z,34.20
2019-05-02T11:58:48.196Z,31.50
2019-05-02T11:59:43.789Z,32.60
2019-05-02T12:00:47.980Z,29.50
2019-05-02T12:01:56.524Z,38.10
2019-05-02T12:02:43.667Z,34.70
2019-05-02T12:03:42.689Z,41.60
2019-05-02T12:04:42.639Z,38.60
2019-05-02T12:05:42.704Z,37.20
2019-05-02T12:06:42.645Z,32.90
2019-05-02T12:07:42.722Z,29.70
2019-05-02T12:08:45.123Z,34.40
2019-05-02T12:09:51.005Z,35.10
2019-05-02T12:10:43.584Z,30.80
2019-05-02T12:11:42.673Z,35.80
2019-05-02T12:12:43.005Z,35.20
2019-05-02T12:13:42.859Z,29.50
2019-05-02T12:14:42.542Z,30.60
2019-05-02T12:15:44.269Z,31.20
2019-05-02T12:16:43.089Z,30.40
2019-05-02T12:17:42.589Z,32.20
2019-05-02T12:18:42.490Z,36.50
2019-05-02T12:19:42.723Z,32.90
2019-05-02T12:20:42.842Z,31.70
2019-05-02T12:21:42.535Z,40.30
2019-05-02T12:22:42.457Z,35.10
2019-05-02T12:23:42.518Z,33.30
2019-05-02T12:24:45.274Z,31.50
2019-05-02T12:25:42.552Z,33.90
2019-05-02T12:26:42.436Z,32.00
2019-05-02T12:27:42.657Z,32.80
2019-05-02T12:28:42.930Z,31.60
2019-05-02T12:29:42.487Z,35.30
2019-05-02T12:30:42.360Z,30.40
2019-05-02T12:31:42.755Z,31.20
2019-05-02T12:32:42.840Z,33.70
2019-05-02T12:33:42.707Z,31.50
2019-05-02T12:34:42.317Z,35.00
2019-05-02T12:35:43.200Z,31.20
2019-05-02T12:36:42.757Z,36.10
2019-05-02T12:37:42.523Z,31.80
2019-05-02T12:38:42.281Z,37.80
2019-05-02T12:39:42.608Z,37.40
2019-05-02T12:40:42.385Z,35.30
2019-05-02T12:41:42.640Z,36.20
2019-05-02T12:42:42.236Z,32.80
2019-05-02T12:43:42.265Z,32.40
2019-05-02T12:44:42.688Z,31.60
2019-05-02T12:45:42.362Z,30.30
2019-05-02T12:46:42.291Z,32.90
2019-05-02T12:47:42.891Z,33.20
2019-05-02T12:48:42.330Z,31.50
2019-05-02T12:49:42.503Z,32.70
2019-05-02T12:50:42.161Z,34.40
2019-05-02T12:51:42.913Z,33.50
2019-05-02T12:52:42.958Z,33.90
2019-05-02T12:53:42.218Z,31.80
2019-05-02T12:54:42.123Z,31.80
2019-05-02T12:55:42.350Z,32.10
2019-05-02T12:56:42.083Z,35.50
2019-05-02T12:57:42.865Z,30.70
2019-05-02T12:58:42.218Z,34.40
2019-05-02T12:59:42.162Z,36.60
2019-05-02T13:00:43.115Z,32.80
2019-05-02T13:01:42.290Z,32.40
2019-05-02T13:02:42.063Z,33.40
2019-05-02T13:03:43.659Z,30.30
2019-05-02T13:04:42.011Z,33.40
2019-05-02T13:05:42.686Z,31.70
2019-05-02T13:06:42.287Z,36.00
2019-05-02T13:07:42.888Z,31.90
2019-05-02T13:08:42.981Z,32.50
2019-05-02T13:09:42.140Z,31.20